Time;durP1;ratioP1;P1;durP2;ratioP2;P2;SDS_P1;SDS_P2;PMS_P1;PMS_P2;Temp;Humidity;BMP_temperature;BMP_pressure;BME280_temperature;BME280_humidity;BME280_pressure;Samples;Min_cycle;Max_cycle;Signal;HPM_P1;HPM_P2
2020/12/11 00:00:06;;;;;;;20.25;10.98;;;-0.30;99.90;;;;;;4988744;28;20503;-83
2020/12/11 00:02:35;;;;;;;19.52;10.70;;;-0.30;99.90;;;;;;4999313;28;20097;-83
2020/12/11 00:05:05;;;;;;;22.33;11.90;;;-0.30;99.90;;;;;;5001795;28;20073;-83
2020/12/11 00:07:38;;;;;;;21.58;11.45;;;-0.30;99.90;;;;;;5003529;28;20037;-83
2020/12/11 00:10:08;;;;;;;19.92;11.00;;;-0.30;99.90;;;;;;5024990;28;20049;-83
2020/12/11 00:12:34;;;;;;;22.95;11.80;;;-0.30;99.90;;;;;;4995521;28;20076;-83
2020/12/11 00:15:01;;;;;;;21.23;10.35;;;-0.30;99.90;;;;;;5008240;28;20265;-82
2020/12/11 00:17:27;;;;;;;22.15;10.30;;;-0.30;99.90;;;;;;4984803;28;20037;-83
2020/12/11 00:19:53;;;;;;;20.35;9.98;;;-0.30;99.90;;;;;;4976408;28;20117;-84
2020/12/11 00:22:19;;;;;;;21.45;10.10;;;-0.30;99.90;;;;;;4987215;28;20467;-83
2020/12/11 00:24:45;;;;;;;23.33;11.63;;;-0.30;99.90;;;;;;4992302;28;20042;-85
2020/12/11 00:27:11;;;;;;;23.70;11.50;;;-0.30;99.90;;;;;;4974731;28;20181;-84
2020/12/11 00:29:36;;;;;;;20.60;10.48;;;-0.30;99.90;;;;;;4991975;28;20057;-83
2020/12/11 00:32:03;;;;;;;23.70;10.73;;;-0.30;99.90;;;;;;4992083;28;20090;-84
2020/12/11 00:34:30;;;;;;;24.13;11.93;;;-0.30;99.90;;;;;;4975825;28;20038;-83
2020/12/11 00:36:56;;;;;;;24.25;12.60;;;-0.20;99.90;;;;;;4975957;28;20125;-83
2020/12/11 00:39:21;;;;;;;20.70;10.32;;;-0.20;99.90;;;;;;4975590;28;20034;-83
2020/12/11 00:41:48;;;;;;;20.45;10.40;;;-0.30;99.90;;;;;;4991920;28;20113;-84
2020/12/11 00:44:13;;;;;;;21.00;10.40;;;-0.30;99.90;;;;;;4975650;28;20046;-83
2020/12/11 00:46:39;;;;;;;22.75;11.15;;;-0.30;99.90;;;;;;5009160;28;20034;-83
2020/12/11 00:49:05;;;;;;;20.73;10.57;;;-0.30;99.90;;;;;;4975803;28;20026;-82
2020/12/11 00:51:30;;;;;;;18.52;8.32;;;-0.30;99.90;;;;;;4975446;28;20034;-83
2020/12/11 00:53:56;;;;;;;18.63;8.95;;;-0.20;99.90;;;;;;4975720;28;20026;-83
2020/12/11 00:56:23;;;;;;;19.33;9.50;;;-0.20;99.90;;;;;;4967746;28;20030;-82
2020/12/11 00:58:49;;;;;;;24.52;10.95;;;-0.20;99.90;;;;;;4988448;28;20030;-81
2020/12/11 01:01:15;;;;;;;22.83;11.68;;;-0.20;99.90;;;;;;4965695;28;20125;-84
2020/12/11 01:03:40;;;;;;;22.08;10.52;;;-0.10;99.90;;;;;;4991424;28;20041;-83
2020/12/11 01:06:29;;;;;;;19.02;8.38;;;-0.10;99.90;;;;;;4984153;28;20046;-82
2020/12/11 01:08:54;;;;;;;23.73;11.02;;;-0.10;99.90;;;;;;4984434;28;20051;-82
2020/12/11 01:11:20;;;;;;;24.05;10.98;;;-0.10;99.90;;;;;;4972082;28;20026;-83
2020/12/11 01:13:45;;;;;;;22.20;11.32;;;-0.10;99.90;;;;;;4955640;28;20030;-83
2020/12/11 01:16:11;;;;;;;18.75;10.05;;;-0.10;99.90;;;;;;4988066;28;20045;-83
2020/12/11 01:18:36;;;;;;;18.80;8.85;;;0.00;99.90;;;;;;4991162;28;20094;-83
2020/12/11 01:21:02;;;;;;;22.52;11.27;;;-0.10;99.90;;;;;;4971432;28;20023;-83
2020/12/11 01:23:28;;;;;;;23.48;11.38;;;-0.10;99.90;;;;;;4987785;28;20027;-83
2020/12/11 01:25:53;;;;;;;24.83;12.35;;;0.00;99.90;;;;;;4987839;28;20454;-83
2020/12/11 01:28:19;;;;;;;23.83;11.05;;;0.00;99.90;;;;;;4971631;28;20091;-85
2020/12/11 01:30:44;;;;;;;24.27;11.73;;;0.00;99.90;;;;;;4971553;28;20034;-83
2020/12/11 01:33:10;;;;;;;23.88;11.23;;;0.00;99.90;;;;;;4971492;28;20038;-82
2020/12/11 01:35:36;;;;;;;29.58;12.90;;;0.00;99.90;;;;;;4971351;28;20122;-84
2020/12/11 01:38:01;;;;;;;25.23;12.88;;;0.10;99.90;;;;;;4971174;28;20030;-84
2020/12/11 01:40:34;;;;;;;22.25;10.75;;;0.00;99.90;;;;;;4971500;28;20054;-83
2020/12/11 01:43:00;;;;;;;23.17;10.88;;;0.00;99.90;;;;;;4987757;28;20066;-84
2020/12/11 01:45:25;;;;;;;19.25;8.95;;;0.00;99.90;;;;;;4987416;28;20051;-83
2020/12/11 01:47:51;;;;;;;22.35;10.98;;;0.00;99.90;;;;;;4971510;28;20042;-83
2020/12/11 01:50:20;;;;;;;23.27;11.27;;;0.10;99.90;;;;;;4971218;28;20034;-83
2020/12/11 01:52:47;;;;;;;25.77;12.02;;;0.10;99.90;;;;;;4971031;28;20446;-83
2020/12/11 01:55:13;;;;;;;25.25;11.95;;;0.10;99.90;;;;;;4970981;28;20058;-83
2020/12/11 01:57:52;;;;;;;29.35;14.30;;;0.00;99.90;;;;;;4971249;28;20035;-83
2020/12/11 02:00:20;;;;;;;25.58;12.60;;;0.10;99.90;;;;;;4971054;28;20181;-84
2020/12/11 02:02:47;;;;;;;23.77;10.75;;;0.10;99.90;;;;;;4970951;28;20085;-84
2020/12/11 02:05:13;;;;;;;23.35;10.82;;;0.10;99.90;;;;;;4970788;28;20049;-82
2020/12/11 02:07:39;;;;;;;28.70;13.25;;;0.10;99.90;;;;;;4987037;28;20071;-83
2020/12/11 02:10:09;;;;;;;24.80;11.50;;;0.10;99.90;;;;;;4973668;28;20050;-84
2020/12/11 02:12:37;;;;;;;24.08;11.45;;;0.10;99.90;;;;;;4990620;28;20026;-83
2020/12/11 02:15:05;;;;;;;22.17;10.52;;;0.00;99.90;;;;;;4993897;28;20038;-83
2020/12/11 02:17:31;;;;;;;21.08;9.68;;;0.00;99.90;;;;;;4973989;28;20030;-83
2020/12/11 02:19:56;;;;;;;22.75;11.50;;;0.00;99.90;;;;;;4989774;28;20065;-83
2020/12/11 02:22:22;;;;;;;17.60;8.55;;;0.10;99.90;;;;;;4988640;28;20076;-84
2020/12/11 02:24:49;;;;;;;26.15;11.40;;;0.10;99.90;;;;;;5009269;28;20041;-82
2020/12/11 02:27:16;;;;;;;26.40;12.23;;;0.10;99.90;;;;;;5009522;28;20042;-83
2020/12/11 02:29:41;;;;;;;30.35;12.30;;;0.10;99.90;;;;;;4993000;28;20034;-83
2020/12/11 02:32:07;;;;;;;23.90;11.73;;;0.10;99.90;;;;;;4992436;28;20056;-83
2020/12/11 02:34:33;;;;;;;26.27;12.65;;;0.00;99.90;;;;;;5009007;28;20041;-83
2020/12/11 02:37:05;;;;;;;24.17;11.32;;;0.10;99.90;;;;;;5009282;28;20036;-83
2020/12/11 02:39:30;;;;;;;27.27;12.27;;;0.00;99.90;;;;;;5025518;28;20091;-83
2020/12/11 02:41:56;;;;;;;24.02;11.57;;;0.10;99.90;;;;;;4992981;28;20509;-86
2020/12/11 02:44:22;;;;;;;24.65;11.00;;;0.10;99.90;;;;;;4992970;28;20034;-85
2020/12/11 02:46:48;;;;;;;26.30;11.30;;;0.10;99.90;;;;;;5009075;28;20032;-83
2020/12/11 02:49:14;;;;;;;19.15;8.70;;;0.00;99.90;;;;;;5008845;28;20395;-83
2020/12/11 02:51:40;;;;;;;26.05;11.68;;;0.00;99.90;;;;;;5009008;28;20045;-84
2020/12/11 02:54:05;;;;;;;32.35;12.25;;;0.00;99.90;;;;;;5009060;28;20042;-83
2020/12/11 02:56:31;;;;;;;25.25;11.52;;;0.00;99.90;;;;;;5009106;28;20037;-83
2020/12/11 02:58:57;;;;;;;23.27;11.50;;;0.00;99.90;;;;;;4992338;28;20064;-83
2020/12/11 03:01:26;;;;;;;26.50;11.55;;;0.10;99.90;;;;;;5009007;28;20034;-83
2020/12/11 03:04:12;;;;;;;27.60;11.95;;;0.00;99.90;;;;;;5008541;28;20038;-83
2020/12/11 03:06:37;;;;;;;32.05;14.35;;;0.00;99.90;;;;;;4968852;28;20178;-83
2020/12/11 03:09:03;;;;;;;28.77;13.63;;;0.10;99.90;;;;;;4952617;28;20089;-85
2020/12/11 03:11:29;;;;;;;25.67;10.90;;;0.10;99.90;;;;;;4969083;28;20166;-84
2020/12/11 03:13:55;;;;;;;28.20;13.43;;;0.10;99.90;;;;;;4968794;28;20031;-84
2020/12/11 03:16:20;;;;;;;22.00;11.15;;;0.10;99.90;;;;;;4935462;29;20031;-83
2020/12/11 03:18:47;;;;;;;21.52;10.77;;;0.10;99.90;;;;;;4949449;29;20109;-85
2020/12/11 03:21:13;;;;;;;24.40;10.88;;;0.10;99.90;;;;;;4930310;29;20027;-85
2020/12/11 03:23:39;;;;;;;23.20;11.10;;;0.10;99.90;;;;;;4940752;29;20063;-83
2020/12/11 03:26:05;;;;;;;25.83;13.23;;;0.20;99.90;;;;;;4944024;29;20524;-83
2020/12/11 03:28:31;;;;;;;23.23;11.52;;;0.20;99.90;;;;;;4939854;29;20036;-82
2020/12/11 03:30:58;;;;;;;25.40;12.10;;;0.20;99.90;;;;;;4911508;29;20152;-83
2020/12/11 03:33:24;;;;;;;25.80;11.68;;;0.20;99.90;;;;;;4930475;29;20528;-82
2020/12/11 03:35:50;;;;;;;25.10;11.77;;;0.20;99.90;;;;;;4946246;29;20110;-83
2020/12/11 03:38:15;;;;;;;23.95;12.25;;;0.20;99.90;;;;;;4945317;29;20491;-83
2020/12/11 03:40:41;;;;;;;23.90;10.77;;;0.20;99.90;;;;;;4940863;29;20134;-83
2020/12/11 03:43:07;;;;;;;23.00;10.63;;;0.20;99.90;;;;;;4939301;28;20111;-83
2020/12/11 03:45:32;;;;;;;21.90;11.93;;;0.20;99.90;;;;;;4957536;28;20081;-82
2020/12/11 03:47:58;;;;;;;24.70;11.70;;;0.20;99.90;;;;;;4970279;28;20121;-83
2020/12/11 03:50:23;;;;;;;27.88;13.05;;;0.20;99.90;;;;;;4973311;28;20038;-83
2020/12/11 03:52:49;;;;;;;22.20;11.85;;;0.30;99.90;;;;;;4973768;28;20034;-84
2020/12/11 03:55:15;;;;;;;25.45;13.10;;;0.30;99.90;;;;;;4973539;28;20034;-83
2020/12/11 03:57:40;;;;;;;24.98;12.10;;;0.20;99.90;;;;;;4973288;28;20034;-83
2020/12/11 04:00:06;;;;;;;23.75;11.88;;;0.20;99.90;;;;;;4973367;28;20041;-84
2020/12/11 04:02:36;;;;;;;26.30;13.52;;;0.20;99.90;;;;;;4973278;28;20092;-83
2020/12/11 04:05:05;;;;;;;22.52;12.13;;;0.20;99.90;;;;;;4972837;28;20070;-83
2020/12/11 04:07:32;;;;;;;27.35;13.65;;;0.20;99.90;;;;;;4973281;28;20046;-83
2020/12/11 04:09:57;;;;;;;24.48;12.50;;;0.20;99.90;;;;;;4985892;28;20050;-81
2020/12/11 04:12:23;;;;;;;28.40;14.30;;;0.20;99.90;;;;;;4992472;28;20031;-83
2020/12/11 04:14:49;;;;;;;24.73;13.27;;;0.20;99.90;;;;;;4967676;29;20115;-83
2020/12/11 04:17:14;;;;;;;23.85;12.65;;;0.20;99.90;;;;;;4956666;28;20022;-83
2020/12/11 04:19:40;;;;;;;28.60;14.77;;;0.20;99.90;;;;;;4972617;28;20039;-83
2020/12/11 04:22:06;;;;;;;25.33;13.10;;;0.20;99.90;;;;;;4965775;28;20034;-82
2020/12/11 04:24:31;;;;;;;24.60;12.63;;;0.20;99.90;;;;;;4976261;28;20042;-83
2020/12/11 04:26:57;;;;;;;25.13;13.27;;;0.20;99.90;;;;;;4976083;28;20033;-82
2020/12/11 04:29:23;;;;;;;26.73;13.15;;;0.10;99.90;;;;;;5009427;28;20035;-82
2020/12/11 04:31:56;;;;;;;26.00;12.68;;;0.10;99.90;;;;;;4992081;28;20026;-82
2020/12/11 04:34:21;;;;;;;28.02;14.98;;;0.10;99.90;;;;;;4991723;28;20088;-81
2020/12/11 04:36:55;;;;;;;27.00;13.27;;;0.10;99.90;;;;;;4975983;28;20031;-82
2020/12/11 04:39:22;;;;;;;21.90;11.30;;;0.10;99.90;;;;;;4975493;28;20036;-83
2020/12/11 04:41:50;;;;;;;27.02;12.15;;;0.00;99.90;;;;;;4975879;28;20034;-82
2020/12/11 04:44:16;;;;;;;24.65;11.45;;;0.10;99.90;;;;;;4991664;28;20046;-83
2020/12/11 04:46:42;;;;;;;24.65;13.07;;;0.10;99.90;;;;;;4975886;28;20048;-83
2020/12/11 04:49:08;;;;;;;22.95;12.30;;;0.10;99.90;;;;;;4991904;28;20050;-83
2020/12/11 04:51:34;;;;;;;27.65;13.35;;;0.10;99.90;;;;;;4991966;28;20069;-82
2020/12/11 04:54:03;;;;;;;20.55;10.52;;;0.10;99.90;;;;;;4975153;28;20061;-83
2020/12/11 04:56:30;;;;;;;25.95;13.02;;;0.10;99.90;;;;;;4991518;28;20035;-82
2020/12/11 04:58:56;;;;;;;23.80;11.93;;;0.10;99.90;;;;;;4991368;28;20038;-85
2020/12/11 05:01:33;;;;;;;21.23;11.13;;;0.10;99.90;;;;;;4991542;28;20065;-84
2020/12/11 05:04:19;;;;;;;25.50;12.45;;;0.10;99.90;;;;;;4991563;28;20043;-82
2020/12/11 05:06:45;;;;;;;23.35;11.55;;;0.10;99.90;;;;;;4951562;29;20064;-82
2020/12/11 05:09:15;;;;;;;27.58;13.27;;;0.10;99.90;;;;;;4974408;28;20051;-83
2020/12/11 05:11:42;;;;;;;23.02;11.38;;;0.20;99.90;;;;;;4971132;28;20047;-83
2020/12/11 05:14:18;;;;;;;27.42;13.27;;;0.20;99.90;;;;;;4954991;28;20062;-83
2020/12/11 05:16:54;;;;;;;22.13;11.38;;;0.20;99.90;;;;;;4932762;29;20035;-83
2020/12/11 05:19:20;;;;;;;25.90;12.82;;;0.20;99.90;;;;;;4932640;29;20466;-82
2020/12/11 05:21:45;;;;;;;25.27;13.05;;;0.30;99.90;;;;;;4941542;29;20102;-82
2020/12/11 05:24:11;;;;;;;27.20;13.50;;;0.30;99.90;;;;;;4967277;29;20054;-85
2020/12/11 05:26:36;;;;;;;25.77;12.38;;;0.30;99.90;;;;;;4951274;29;20031;-83
2020/12/11 05:29:03;;;;;;;25.27;12.02;;;0.30;99.90;;;;;;4935589;29;20028;-83
2020/12/11 05:31:29;;;;;;;23.30;11.90;;;0.20;99.90;;;;;;4951054;29;20047;-82
2020/12/11 05:34:12;;;;;;;27.75;13.98;;;0.20;99.90;;;;;;4935274;29;20110;-82
2020/12/11 05:36:53;;;;;;;25.40;12.88;;;0.30;99.90;;;;;;4967000;29;20057;-83
2020/12/11 05:39:24;;;;;;;23.88;11.98;;;0.30;99.90;;;;;;4950826;29;20091;-82
2020/12/11 05:41:50;;;;;;;22.80;11.73;;;0.20;99.90;;;;;;4935263;29;20522;-83
2020/12/11 05:44:30;;;;;;;23.40;11.65;;;0.30;99.90;;;;;;4977160;28;20074;-83
2020/12/11 05:46:57;;;;;;;25.30;12.57;;;0.40;99.90;;;;;;4987715;28;20093;-82
2020/12/11 05:49:25;;;;;;;22.45;11.63;;;0.50;99.90;;;;;;4987367;28;20066;-83
2020/12/11 05:52:12;;;;;;;27.30;14.45;;;0.50;99.90;;;;;;4987242;28;20034;-84
2020/12/11 05:54:41;;;;;;;24.65;11.90;;;0.60;99.90;;;;;;4987311;28;20035;-87
2020/12/11 05:57:08;;;;;;;22.92;12.65;;;0.50;99.90;;;;;;4987504;28;20030;-83
2020/12/11 05:59:35;;;;;;;23.17;11.48;;;0.50;99.90;;;;;;4988410;28;20097;-84
2020/12/11 06:02:01;;;;;;;21.00;10.93;;;0.50;99.90;;;;;;4990366;28;20449;-84
2020/12/11 06:04:28;;;;;;;25.48;13.65;;;0.50;99.90;;;;;;4990246;28;20073;-84
2020/12/11 06:06:58;;;;;;;20.45;11.00;;;0.60;99.90;;;;;;4985674;28;20066;-83
2020/12/11 06:09:28;;;;;;;;;;;0.70;99.90;;;;;;4974855;28;20046;-83
2020/12/11 06:11:58;;;;;;;22.95;11.55;;;0.70;99.90;;;;;;4990505;28;19917;-83
2020/12/11 06:14:36;;;;;;;22.90;12.32;;;0.70;99.90;;;;;;4990074;28;20046;-83
2020/12/11 06:17:04;;;;;;;22.23;12.20;;;0.70;99.90;;;;;;5007579;28;20026;-82
2020/12/11 06:19:30;;;;;;;21.83;11.95;;;0.80;99.90;;;;;;4989490;28;20102;-82
2020/12/11 06:21:57;;;;;;;25.45;12.00;;;0.70;99.90;;;;;;4962509;28;20030;-83
2020/12/11 06:24:30;;;;;;;20.73;11.18;;;0.70;99.90;;;;;;4962237;28;20129;-83
2020/12/11 06:27:03;;;;;;;17.88;9.02;;;0.70;99.90;;;;;;4961952;28;20038;-83
2020/12/11 06:29:40;;;;;;;24.15;11.90;;;0.80;99.90;;;;;;4954166;28;20493;-82
2020/12/11 06:32:08;;;;;;;23.85;12.25;;;0.80;99.90;;;;;;4970150;28;20026;-83
2020/12/11 06:34:33;;;;;;;22.13;10.77;;;0.80;99.90;;;;;;4953945;28;20035;-82
2020/12/11 06:36:59;;;;;;;22.10;11.35;;;0.80;99.90;;;;;;4970029;28;20125;-83
2020/12/11 06:39:51;;;;;;;22.38;11.38;;;0.80;99.90;;;;;;4973745;28;20026;-82
2020/12/11 06:42:35;;;;;;;17.08;8.82;;;0.80;99.90;;;;;;4973758;28;20375;-82
2020/12/11 06:45:20;;;;;;;19.20;9.45;;;0.80;99.90;;;;;;4970027;28;20042;-90
2020/12/11 06:47:58;;;;;;;20.05;10.40;;;0.80;99.90;;;;;;4972972;28;20036;-84
2020/12/11 06:50:30;;;;;;;21.85;10.35;;;0.80;99.90;;;;;;4963804;28;20030;-83
2020/12/11 06:52:56;;;;;;;19.45;10.32;;;0.80;99.90;;;;;;4972911;28;20026;-86
2020/12/11 06:55:23;;;;;;;22.70;12.57;;;0.90;99.90;;;;;;4970056;28;20058;-87
2020/12/11 06:57:49;;;;;;;22.38;12.20;;;0.90;99.90;;;;;;4963363;28;20022;-84
2020/12/11 07:00:27;;;;;;;22.90;11.70;;;0.90;99.90;;;;;;4994271;28;20402;-83
2020/12/11 07:03:14;;;;;;;18.13;9.55;;;0.90;99.90;;;;;;4981852;28;20058;-81
2020/12/11 07:05:40;;;;;;;21.35;10.80;;;0.90;99.90;;;;;;4983092;28;20043;-82
2020/12/11 07:08:16;;;;;;;22.58;12.20;;;0.90;99.90;;;;;;4978867;28;20045;-82
2020/12/11 07:10:46;;;;;;;19.67;10.73;;;0.90;99.90;;;;;;5000667;28;20064;-86
2020/12/11 07:13:12;;;;;;;22.15;11.48;;;0.90;99.90;;;;;;5002096;28;20033;-82
2020/12/11 07:15:38;;;;;;;21.70;11.10;;;0.90;99.90;;;;;;5007289;28;20030;-83
2020/12/11 07:18:15;;;;;;;23.27;11.68;;;0.90;99.90;;;;;;5007639;28;20036;-83
2020/12/11 07:20:48;;;;;;;21.25;11.80;;;0.90;99.90;;;;;;5006496;28;20591;-82
2020/12/11 07:23:16;;;;;;;22.85;11.93;;;1.00;99.90;;;;;;5005893;28;20030;-84
2020/12/11 07:25:41;;;;;;;20.95;11.00;;;1.10;99.90;;;;;;4996565;28;20030;-83
2020/12/11 07:28:07;;;;;;;19.38;9.18;;;1.00;99.90;;;;;;5002045;28;20486;-83
2020/12/11 07:30:33;;;;;;;20.73;10.70;;;1.00;99.90;;;;;;5007011;28;20033;-83
2020/12/11 07:32:59;;;;;;;21.98;11.45;;;1.00;99.90;;;;;;5004158;28;20061;-81
2020/12/11 07:35:25;;;;;;;21.60;10.32;;;1.10;99.90;;;;;;5011095;28;20049;-84
2020/12/11 07:37:55;;;;;;;19.75;10.77;;;1.10;99.90;;;;;;5021414;28;20030;-84
2020/12/11 07:40:22;;;;;;;17.08;9.32;;;1.10;99.90;;;;;;4985248;28;20491;-80
2020/12/11 07:42:49;;;;;;;20.02;10.32;;;1.10;99.90;;;;;;5008062;28;20041;-81
2020/12/11 07:45:30;;;;;;;15.15;9.13;;;1.10;99.90;;;;;;4983402;28;20368;-81
2020/12/11 07:47:56;;;;;;;20.58;11.32;;;1.10;99.90;;;;;;5008764;28;20117;-83
2020/12/11 07:50:24;;;;;;;22.95;12.50;;;1.20;99.90;;;;;;4989409;28;20026;-82
2020/12/11 07:52:52;;;;;;;21.75;10.85;;;1.20;99.90;;;;;;5007071;28;20036;-82
2020/12/11 07:55:18;;;;;;;21.98;10.23;;;1.20;99.90;;;;;;5022945;28;20110;-82
2020/12/11 07:57:52;;;;;;;21.13;10.98;;;1.20;99.90;;;;;;4991956;28;20084;-83
2020/12/11 08:00:18;;;;;;;25.40;13.38;;;1.30;99.90;;;;;;4987590;28;20038;-81
2020/12/11 08:02:44;;;;;;;22.02;10.82;;;1.30;99.90;;;;;;5016989;28;20164;-81
2020/12/11 08:05:13;;;;;;;19.60;10.77;;;1.40;99.90;;;;;;4987652;28;20034;-79
2020/12/11 08:07:38;;;;;;;22.20;12.23;;;1.40;99.90;;;;;;4992755;28;20030;-80
2020/12/11 08:10:10;;;;;;;21.75;11.15;;;1.40;99.90;;;;;;4974068;28;20062;-80
2020/12/11 08:12:36;;;;;;;22.08;11.50;;;1.40;99.90;;;;;;4987577;28;20026;-80
2020/12/11 08:15:03;;;;;;;21.10;10.40;;;1.40;99.90;;;;;;4971650;28;20034;-81
2020/12/11 08:17:33;;;;;;;21.88;11.65;;;1.40;99.90;;;;;;4987561;28;20154;-81
2020/12/11 08:20:01;;;;;;;17.98;10.32;;;1.50;99.90;;;;;;4987218;28;20030;-80
2020/12/11 08:22:32;;;;;;;22.48;11.35;;;1.50;99.90;;;;;;4993836;28;20062;-82
2020/12/11 08:24:58;;;;;;;22.30;11.05;;;1.50;99.90;;;;;;4964407;28;20043;-82
2020/12/11 08:27:28;;;;;;;20.90;11.45;;;1.50;99.90;;;;;;4971001;28;20034;-81
2020/12/11 08:30:07;;;;;;;21.65;11.07;;;1.50;99.90;;;;;;4948429;28;20061;-84
2020/12/11 08:32:33;;;;;;;20.67;11.93;;;1.60;99.90;;;;;;4978546;28;20061;-82
2020/12/11 08:34:59;;;;;;;22.33;11.60;;;1.60;99.90;;;;;;4991073;28;20041;-81
2020/12/11 08:37:25;;;;;;;23.95;12.73;;;1.60;99.90;;;;;;4998708;28;20041;-82
2020/12/11 08:40:03;;;;;;;17.23;9.85;;;1.60;99.90;;;;;;4995084;28;20045;-84
2020/12/11 08:42:34;;;;;;;21.85;11.10;;;1.70;99.90;;;;;;4989925;28;20034;-84
2020/12/11 08:45:09;;;;;;;19.63;10.68;;;1.70;99.90;;;;;;4988407;28;20035;-81
2020/12/11 08:50:11;;;;;;;20.45;11.43;;;1.80;99.90;;;;;;5002305;28;20026;-80
2020/12/11 08:52:37;;;;;;;20.75;12.07;;;1.80;99.90;;;;;;4986959;28;20030;-80
2020/12/11 08:55:02;;;;;;;19.98;11.18;;;1.80;99.90;;;;;;4994585;28;20044;-81
2020/12/11 08:57:32;;;;;;;18.35;10.10;;;1.80;99.90;;;;;;5003855;28;20030;-81
2020/12/11 08:59:57;;;;;;;22.50;12.82;;;1.80;99.90;;;;;;4989710;28;20030;-82
2020/12/11 09:02:23;;;;;;;22.30;11.98;;;1.90;99.90;;;;;;4986384;28;20039;-83
2020/12/11 09:04:49;;;;;;;19.80;10.43;;;1.90;99.90;;;;;;4974431;28;20072;-81
2020/12/11 09:07:14;;;;;;;17.67;10.35;;;1.90;99.90;;;;;;5005584;28;20120;-81
2020/12/11 09:09:40;;;;;;;14.35;8.07;;;1.90;99.90;;;;;;4990771;28;20564;-82
2020/12/11 09:12:05;;;;;;;21.30;12.27;;;1.90;99.90;;;;;;5004033;28;20038;-81
2020/12/11 09:14:31;;;;;;;19.50;11.93;;;2.00;99.90;;;;;;5005754;28;20050;-79
2020/12/11 09:16:57;;;;;;;18.42;10.65;;;2.00;99.90;;;;;;4988769;28;20035;-81
2020/12/11 09:19:23;;;;;;;20.95;11.93;;;2.00;99.90;;;;;;4987213;28;20030;-81
2020/12/11 09:21:48;;;;;;;20.85;11.93;;;2.10;99.90;;;;;;4989617;28;20085;-81
2020/12/11 09:24:14;;;;;;;18.70;10.90;;;2.10;99.90;;;;;;4976471;28;20041;-81
2020/12/11 09:26:40;;;;;;;21.00;11.63;;;2.10;99.90;;;;;;4969174;28;20121;-82
2020/12/11 09:29:15;;;;;;;21.88;11.70;;;2.20;99.90;;;;;;4975459;28;20070;-82
2020/12/11 09:31:45;;;;;;;19.60;11.38;;;2.20;99.90;;;;;;4987181;28;20100;-83
2020/12/11 09:34:11;;;;;;;18.08;11.32;;;2.20;99.90;;;;;;4990249;28;20042;-81
2020/12/11 09:36:41;;;;;;;23.23;12.20;;;2.30;99.90;;;;;;5013066;28;20042;-81
2020/12/11 09:39:07;;;;;;;28.50;16.33;;;2.30;99.90;;;;;;4988892;28;20121;-82
2020/12/11 09:41:39;;;;;;;21.80;12.20;;;2.30;99.90;;;;;;4991574;28;20033;-81
2020/12/11 09:44:28;;;;;;;21.05;12.50;;;2.40;99.90;;;;;;4989284;28;20034;-82
2020/12/11 09:47:09;;;;;;;19.02;10.63;;;2.40;99.90;;;;;;4985744;28;21856;-82
2020/12/11 09:49:44;;;;;;;18.73;10.95;;;2.50;99.90;;;;;;4986216;28;20504;-81
2020/12/11 09:54:53;;;;;;;18.30;9.75;;;2.50;99.90;;;;;;4986125;28;20049;-83
2020/12/11 09:57:19;;;;;;;16.95;10.05;;;2.60;99.90;;;;;;4989087;28;20026;-82
2020/12/11 09:59:50;;;;;;;18.05;10.75;;;2.60;99.90;;;;;;4990482;28;20550;-82
2020/12/11 10:02:35;;;;;;;20.98;12.30;;;2.60;99.90;;;;;;4985226;28;20039;-83
2020/12/11 10:05:01;;;;;;;19.10;10.50;;;2.60;99.90;;;;;;4987612;28;20065;-82
2020/12/11 10:07:26;;;;;;;20.67;12.05;;;2.60;99.90;;;;;;4985746;28;20120;-83
2020/12/11 10:09:52;;;;;;;15.00;9.48;;;2.70;99.90;;;;;;5003133;28;20468;-83
2020/12/11 10:12:21;;;;;;;19.10;11.15;;;2.70;99.90;;;;;;4988411;28;20085;-82
2020/12/11 10:14:51;;;;;;;18.00;10.18;;;2.70;99.90;;;;;;5002710;28;20030;-82
2020/12/11 10:17:16;;;;;;;18.25;11.35;;;2.70;99.90;;;;;;4987971;28;20033;-83
2020/12/11 10:19:42;;;;;;;18.88;11.93;;;2.70;99.90;;;;;;5004320;28;20034;-80
2020/12/11 10:22:07;;;;;;;18.67;10.88;;;2.70;99.90;;;;;;4987145;28;20055;-82
2020/12/11 10:24:33;;;;;;;18.45;10.75;;;2.80;99.90;;;;;;4975079;28;20079;-83
2020/12/11 10:26:58;;;;;;;17.73;11.05;;;2.80;99.90;;;;;;4982234;28;20026;-83
2020/12/11 10:29:24;;;;;;;14.20;9.30;;;2.90;99.90;;;;;;4978008;28;20054;-82
2020/12/11 10:31:50;;;;;;;16.52;10.07;;;2.90;99.90;;;;;;4988605;28;20034;-81
2020/12/11 10:34:17;;;;;;;14.40;8.65;;;2.90;99.90;;;;;;5004272;28;20034;-82
2020/12/11 10:36:43;;;;;;;19.58;10.88;;;2.90;99.90;;;;;;5003888;28;20049;-82
2020/12/11 10:39:10;;;;;;;20.38;11.63;;;3.00;99.90;;;;;;5004501;28;20038;-82
2020/12/11 10:41:36;;;;;;;15.70;9.57;;;3.00;99.90;;;;;;4987455;28;20037;-82
2020/12/11 10:44:02;;;;;;;16.35;10.27;;;3.00;99.90;;;;;;5004965;28;20030;-81
2020/12/11 10:46:28;;;;;;;20.25;12.25;;;3.00;99.90;;;;;;5003185;28;20533;-82
2020/12/11 10:48:54;;;;;;;16.02;9.82;;;3.10;99.90;;;;;;4986531;28;20026;-82
2020/12/11 10:51:20;;;;;;;18.88;9.93;;;3.10;99.90;;;;;;5004345;28;20112;-83
2020/12/11 10:53:46;;;;;;;18.42;11.25;;;3.20;99.90;;;;;;4987573;28;20038;-86
2020/12/11 10:56:12;;;;;;;16.90;9.77;;;3.20;99.90;;;;;;5005888;28;20126;-83
2020/12/11 10:58:38;;;;;;;16.27;8.88;;;3.20;99.90;;;;;;5004907;28;20060;-84
2020/12/11 11:01:06;;;;;;;16.58;8.95;;;3.30;99.90;;;;;;4987448;28;20034;-83
2020/12/11 11:03:32;;;;;;;17.42;10.93;;;3.30;99.90;;;;;;4987680;28;20049;-82
2020/12/11 11:06:03;;;;;;;17.27;10.25;;;3.30;99.90;;;;;;4987403;28;20054;-82
2020/12/11 11:08:43;;;;;;;18.50;10.85;;;3.30;99.90;;;;;;5001466;28;20331;-80
2020/12/11 11:11:09;;;;;;;17.05;9.10;;;3.30;99.90;;;;;;5006657;28;20061;-82
2020/12/11 11:13:58;;;;;;;16.13;9.50;;;3.20;99.90;;;;;;4993392;28;20026;-82
2020/12/11 11:22:07;;;;;;;18.70;11.70;;;3.20;99.90;;;;;;5011729;28;20037;-83
2020/12/11 11:25:09;;;;;;;16.77;10.20;;;3.20;99.90;;;;;;5003213;28;20039;-83
2020/12/11 11:27:38;;;;;;;18.70;11.15;;;3.20;99.90;;;;;;5017072;28;20117;-82
2020/12/11 11:30:04;;;;;;;15.82;8.85;;;3.20;99.90;;;;;;5024911;28;20049;-82
2020/12/11 11:32:30;;;;;;;17.25;9.38;;;3.30;99.90;;;;;;4995227;28;20038;-83
2020/12/11 11:34:55;;;;;;;18.23;11.52;;;3.20;99.90;;;;;;4999218;28;20064;-83
2020/12/11 11:37:28;;;;;;;20.13;12.23;;;3.20;99.90;;;;;;4986210;23;20037;-82
2020/12/11 11:39:56;;;;;;;18.13;10.13;;;3.20;99.90;;;;;;5039074;23;20076;-81
2020/12/11 11:42:23;;;;;;;14.82;9.20;;;3.20;99.90;;;;;;5044120;28;20029;-81
2020/12/11 11:47:14;;;;;;;19.38;10.25;;;3.20;99.90;;;;;;5042936;28;20113;-81
2020/12/11 11:50:11;;;;;;;16.65;10.10;;;3.20;99.90;;;;;;5026528;28;20030;-80
2020/12/11 11:54:55;;;;;;;15.07;9.02;;;3.20;99.90;;;;;;5039008;28;20083;-80
2020/12/11 11:57:21;;;;;;;13.95;8.25;;;3.20;99.90;;;;;;5042737;28;20056;-80
2020/12/11 11:59:46;;;;;;;17.13;10.02;;;3.20;99.90;;;;;;5026707;28;20030;-81
2020/12/11 12:02:13;;;;;;;18.20;10.52;;;3.20;99.90;;;;;;5036592;28;20432;-81
2020/12/11 12:04:42;;;;;;;20.33;12.65;;;3.20;99.90;;;;;;5043599;28;20090;-82
2020/12/11 12:07:08;;;;;;;17.92;11.07;;;3.20;99.90;;;;;;5045930;28;20438;-82
2020/12/11 12:09:33;;;;;;;18.05;10.18;;;3.30;99.90;;;;;;5046855;28;20037;-83
2020/12/11 12:12:00;;;;;;;18.23;10.40;;;3.30;99.90;;;;;;5030526;28;20045;-81
2020/12/11 12:14:25;;;;;;;17.25;10.48;;;3.30;99.90;;;;;;5030279;28;20049;-81
2020/12/11 12:16:53;;;;;;;14.35;8.40;;;3.40;99.90;;;;;;5043000;28;20033;-81
2020/12/11 12:19:27;;;;;;;17.15;9.40;;;3.40;99.90;;;;;;5021330;28;20080;-81
2020/12/11 12:29:38;;;;;;;15.70;8.70;;;3.40;99.90;;;;;;5043594;28;20079;-81
2020/12/11 12:32:13;;;;;;;14.57;8.57;;;3.40;99.90;;;;;;5026209;28;20032;-81
2020/12/11 12:39:51;;;;;;;13.68;7.55;;;3.40;99.90;;;;;;5045871;28;20078;-81
2020/12/11 12:45:22;;;;;;;16.90;9.65;;;3.40;99.90;;;;;;5042473;28;20136;-82
2020/12/11 12:47:48;;;;;;;18.52;10.27;;;3.40;99.90;;;;;;5026321;28;20600;-81
2020/12/11 12:50:13;;;;;;;14.30;8.65;;;3.40;99.90;;;;;;5041569;28;20037;-82
2020/12/11 12:52:39;;;;;;;15.43;9.70;;;3.40;99.90;;;;;;5044248;28;20109;-82
2020/12/11 12:55:05;;;;;;;15.65;9.30;;;3.40;99.90;;;;;;5012458;28;20065;-84
2020/12/11 12:57:48;;;;;;;13.52;8.70;;;3.40;99.90;;;;;;5019855;28;20114;-84
2020/12/11 13:03:14;;;;;;;12.23;7.47;;;3.50;99.90;;;;;;5046814;28;20524;-83
2020/12/11 13:05:37;;;;;;;14.20;7.75;;;3.50;99.90;;;;;;5043126;28;20186;-80
2020/12/11 13:08:03;;;;;;;16.67;10.27;;;3.50;99.90;;;;;;5014075;28;20125;-82
2020/12/11 13:10:32;;;;;;;15.85;9.20;;;3.50;99.90;;;;;;5009220;28;20037;-85
2020/12/11 13:12:58;;;;;;;15.52;10.20;;;3.50;99.90;;;;;;5010045;28;20038;-81
2020/12/11 13:15:24;;;;;;;16.15;8.93;;;3.50;99.90;;;;;;5028860;28;20053;-82
2020/12/11 13:17:50;;;;;;;15.15;9.23;;;3.50;99.90;;;;;;5029790;28;20052;-81